sensor_id;sensor_type;location;lat;lon;timestamp;P1;durP1;ratioP1;P2;durP2;ratioP2
19179;SDS011;9722;48.754;8.868;2024-02-14T00:01:09;3.87;;;3.50;;
19179;SDS011;9722;48.754;8.868;2024-02-14T00:04:30;3.93;;;3.50;;
19179;SDS011;9722;48.754;8.868;2024-02-14T00:07:51;5.13;;;3.93;;
19179;SDS011;9722;48.754;8.868;2024-02-14T00:11:11;4.17;;;3.77;;
19179;SDS011;9722;48.754;8.868;2024-02-14T00:14:34;4.07;;;3.67;;
19179;SDS011;9722;48.754;8.868;2024-02-14T00:17:54;5.50;;;4.43;;
19179;SDS011;9722;48.754;8.868;2024-02-14T00:21:15;8.80;;;5.10;;
19179;SDS011;9722;48.754;8.868;2024-02-14T00:24:35;7.40;;;4.37;;
19179;SDS011;9722;48.754;8.868;2024-02-14T00:27:56;6.97;;;4.60;;
19179;SDS011;9722;48.754;8.868;2024-02-14T00:31:16;4.33;;;3.33;;
19179;SDS011;9722;48.754;8.868;2024-02-14T00:34:37;4.13;;;3.30;;
19179;SDS011;9722;48.754;8.868;2024-02-14T00:37:57;5.50;;;3.87;;
19179;SDS011;9722;48.754;8.868;2024-02-14T00:41:18;4.90;;;3.53;;
19179;SDS011;9722;48.754;8.868;2024-02-14T00:44:38;3.77;;;3.40;;
19179;SDS011;9722;48.754;8.868;2024-02-14T00:47:59;4.17;;;3.50;;
19179;SDS011;9722;48.754;8.868;2024-02-14T00:51:19;4.47;;;3.60;;
19179;SDS011;9722;48.754;8.868;2024-02-14T00:54:41;3.73;;;3.27;;
19179;SDS011;9722;48.754;8.868;2024-02-14T00:58:01;3.73;;;3.33;;
19179;SDS011;9722;48.754;8.868;2024-02-14T01:01:22;4.80;;;3.20;;
19179;SDS011;9722;48.754;8.868;2024-02-14T01:04:43;3.07;;;2.77;;
19179;SDS011;9722;48.754;8.868;2024-02-14T01:08:04;3.53;;;3.20;;
19179;SDS011;9722;48.754;8.868;2024-02-14T01:11:24;3.43;;;3.00;;
19179;SDS011;9722;48.754;8.868;2024-02-14T01:14:45;4.10;;;3.30;;
19179;SDS011;9722;48.754;8.868;2024-02-14T01:18:05;4.17;;;3.50;;
19179;SDS011;9722;48.754;8.868;2024-02-14T01:21:26;4.97;;;3.07;;
19179;SDS011;9722;48.754;8.868;2024-02-14T01:24:46;3.67;;;3.20;;
19179;SDS011;9722;48.754;8.868;2024-02-14T01:28:07;3.30;;;3.00;;
19179;SDS011;9722;48.754;8.868;2024-02-14T01:31:28;4.33;;;3.23;;
19179;SDS011;9722;48.754;8.868;2024-02-14T01:34:49;3.37;;;2.67;;
19179;SDS011;9722;48.754;8.868;2024-02-14T01:38:09;3.13;;;2.70;;
19179;SDS011;9722;48.754;8.868;2024-02-14T01:41:32;3.30;;;3.00;;
19179;SDS011;9722;48.754;8.868;2024-02-14T01:44:53;4.70;;;3.07;;
19179;SDS011;9722;48.754;8.868;2024-02-14T01:48:14;6.93;;;3.43;;
19179;SDS011;9722;48.754;8.868;2024-02-14T01:51:39;6.57;;;3.13;;
19179;SDS011;9722;48.754;8.868;2024-02-14T01:55:02;3.50;;;3.10;;
19179;SDS011;9722;48.754;8.868;2024-02-14T01:58:25;4.03;;;3.47;;
19179;SDS011;9722;48.754;8.868;2024-02-14T02:01:47;4.17;;;3.23;;
19179;SDS011;9722;48.754;8.868;2024-02-14T02:05:07;4.80;;;3.23;;
19179;SDS011;9722;48.754;8.868;2024-02-14T02:08:28;5.83;;;3.17;;
19179;SDS011;9722;48.754;8.868;2024-02-14T02:11:49;3.43;;;3.13;;
19179;SDS011;9722;48.754;8.868;2024-02-14T02:15:11;3.60;;;3.30;;
19179;SDS011;9722;48.754;8.868;2024-02-14T02:18:34;4.73;;;3.37;;
19179;SDS011;9722;48.754;8.868;2024-02-14T02:21:55;5.53;;;3.40;;
19179;SDS011;9722;48.754;8.868;2024-02-14T02:25:15;3.83;;;3.40;;
19179;SDS011;9722;48.754;8.868;2024-02-14T02:28:36;3.83;;;3.30;;
19179;SDS011;9722;48.754;8.868;2024-02-14T02:31:59;3.97;;;3.53;;
19179;SDS011;9722;48.754;8.868;2024-02-14T02:35:20;3.73;;;3.33;;
19179;SDS011;9722;48.754;8.868;2024-02-14T02:38:40;3.87;;;3.30;;
19179;SDS011;9722;48.754;8.868;2024-02-14T02:42:04;4.13;;;3.73;;
19179;SDS011;9722;48.754;8.868;2024-02-14T02:45:25;3.40;;;3.10;;
19179;SDS011;9722;48.754;8.868;2024-02-14T02:48:45;4.53;;;3.20;;
19179;SDS011;9722;48.754;8.868;2024-02-14T02:52:07;4.53;;;3.27;;
19179;SDS011;9722;48.754;8.868;2024-02-14T02:55:28;3.10;;;2.80;;
19179;SDS011;9722;48.754;8.868;2024-02-14T02:58:48;5.90;;;3.20;;
19179;SDS011;9722;48.754;8.868;2024-02-14T03:02:09;4.53;;;3.67;;
19179;SDS011;9722;48.754;8.868;2024-02-14T03:05:31;5.50;;;2.93;;
19179;SDS011;9722;48.754;8.868;2024-02-14T03:08:53;3.07;;;2.70;;
19179;SDS011;9722;48.754;8.868;2024-02-14T03:12:15;3.43;;;2.60;;
19179;SDS011;9722;48.754;8.868;2024-02-14T03:15:36;4.73;;;2.80;;
19179;SDS011;9722;48.754;8.868;2024-02-14T03:18:56;3.63;;;2.60;;
19179;SDS011;9722;48.754;8.868;2024-02-14T03:22:18;4.03;;;2.67;;
19179;SDS011;9722;48.754;8.868;2024-02-14T03:25:39;3.03;;;2.73;;
19179;SDS011;9722;48.754;8.868;2024-02-14T03:28:59;2.73;;;2.20;;
19179;SDS011;9722;48.754;8.868;2024-02-14T03:32:26;3.93;;;2.77;;
19179;SDS011;9722;48.754;8.868;2024-02-14T03:35:46;2.80;;;2.60;;
19179;SDS011;9722;48.754;8.868;2024-02-14T03:39:07;4.63;;;2.50;;
19179;SDS011;9722;48.754;8.868;2024-02-14T03:42:28;2.40;;;2.17;;
19179;SDS011;9722;48.754;8.868;2024-02-14T03:45:49;2.30;;;1.90;;
19179;SDS011;9722;48.754;8.868;2024-02-14T03:49:09;2.40;;;2.20;;
19179;SDS011;9722;48.754;8.868;2024-02-14T03:52:30;3.13;;;2.33;;
19179;SDS011;9722;48.754;8.868;2024-02-14T03:55:54;3.03;;;2.40;;
19179;SDS011;9722;48.754;8.868;2024-02-14T03:59:14;2.47;;;2.23;;
19179;SDS011;9722;48.754;8.868;2024-02-14T04:02:35;2.60;;;2.40;;
19179;SDS011;9722;48.754;8.868;2024-02-14T04:05:55;4.77;;;2.33;;
19179;SDS011;9722;48.754;8.868;2024-02-14T04:09:16;3.10;;;2.80;;
19179;SDS011;9722;48.754;8.868;2024-02-14T04:12:36;3.63;;;2.80;;
19179;SDS011;9722;48.754;8.868;2024-02-14T04:15:57;5.33;;;3.47;;
19179;SDS011;9722;48.754;8.868;2024-02-14T04:19:17;3.43;;;2.60;;
19179;SDS011;9722;48.754;8.868;2024-02-14T04:22:38;2.93;;;2.30;;
19179;SDS011;9722;48.754;8.868;2024-02-14T04:25:59;3.40;;;3.07;;
19179;SDS011;9722;48.754;8.868;2024-02-14T04:29:19;4.53;;;3.50;;
19179;SDS011;9722;48.754;8.868;2024-02-14T04:32:40;3.00;;;2.70;;
19179;SDS011;9722;48.754;8.868;2024-02-14T04:36:00;2.83;;;2.53;;
19179;SDS011;9722;48.754;8.868;2024-02-14T04:39:21;3.30;;;2.67;;
19179;SDS011;9722;48.754;8.868;2024-02-14T04:42:41;3.13;;;2.50;;
19179;SDS011;9722;48.754;8.868;2024-02-14T04:46:02;3.03;;;2.10;;
19179;SDS011;9722;48.754;8.868;2024-02-14T04:49:27;4.33;;;2.70;;
19179;SDS011;9722;48.754;8.868;2024-02-14T04:52:49;2.27;;;2.00;;
19179;SDS011;9722;48.754;8.868;2024-02-14T04:56:09;3.70;;;2.13;;
19179;SDS011;9722;48.754;8.868;2024-02-14T04:59:30;5.37;;;2.03;;
19179;SDS011;9722;48.754;8.868;2024-02-14T05:02:50;2.83;;;2.30;;
19179;SDS011;9722;48.754;8.868;2024-02-14T05:06:11;2.40;;;1.97;;
19179;SDS011;9722;48.754;8.868;2024-02-14T05:09:31;1.97;;;1.73;;
19179;SDS011;9722;48.754;8.868;2024-02-14T05:12:52;2.00;;;1.43;;
19179;SDS011;9722;48.754;8.868;2024-02-14T05:16:12;2.10;;;1.77;;
19179;SDS011;9722;48.754;8.868;2024-02-14T05:19:33;3.63;;;1.73;;
19179;SDS011;9722;48.754;8.868;2024-02-14T05:22:54;2.73;;;1.50;;
19179;SDS011;9722;48.754;8.868;2024-02-14T05:26:14;2.47;;;1.53;;
19179;SDS011;9722;48.754;8.868;2024-02-14T05:29:34;2.20;;;1.60;;
19179;SDS011;9722;48.754;8.868;2024-02-14T05:32:55;5.13;;;1.63;;
19179;SDS011;9722;48.754;8.868;2024-02-14T05:36:16;1.70;;;1.50;;
19179;SDS011;9722;48.754;8.868;2024-02-14T05:39:37;4.37;;;1.50;;
19179;SDS011;9722;48.754;8.868;2024-02-14T05:42:58;2.67;;;1.70;;
19179;SDS011;9722;48.754;8.868;2024-02-14T05:46:18;2.07;;;1.20;;
19179;SDS011;9722;48.754;8.868;2024-02-14T05:49:41;3.17;;;1.87;;
19179;SDS011;9722;48.754;8.868;2024-02-14T05:53:02;4.93;;;1.50;;
19179;SDS011;9722;48.754;8.868;2024-02-14T05:56:24;5.23;;;1.43;;
19179;SDS011;9722;48.754;8.868;2024-02-14T05:59:44;2.23;;;1.60;;
19179;SDS011;9722;48.754;8.868;2024-02-14T06:03:05;5.63;;;2.47;;
19179;SDS011;9722;48.754;8.868;2024-02-14T06:06:26;3.17;;;1.70;;
19179;SDS011;9722;48.754;8.868;2024-02-14T06:09:47;6.10;;;2.67;;
19179;SDS011;9722;48.754;8.868;2024-02-14T06:13:07;5.07;;;2.80;;
19179;SDS011;9722;48.754;8.868;2024-02-14T06:16:28;4.83;;;2.87;;
19179;SDS011;9722;48.754;8.868;2024-02-14T06:19:48;2.97;;;1.60;;
19179;SDS011;9722;48.754;8.868;2024-02-14T06:23:09;2.17;;;1.97;;
19179;SDS011;9722;48.754;8.868;2024-02-14T06:26:30;2.37;;;1.40;;
19179;SDS011;9722;48.754;8.868;2024-02-14T06:29:51;2.10;;;1.50;;
19179;SDS011;9722;48.754;8.868;2024-02-14T06:33:13;2.50;;;1.50;;
19179;SDS011;9722;48.754;8.868;2024-02-14T06:36:33;1.37;;;1.20;;
19179;SDS011;9722;48.754;8.868;2024-02-14T06:39:54;2.73;;;1.23;;
19179;SDS011;9722;48.754;8.868;2024-02-14T06:43:14;1.57;;;1.10;;
19179;SDS011;9722;48.754;8.868;2024-02-14T06:46:35;2.97;;;1.50;;
19179;SDS011;9722;48.754;8.868;2024-02-14T06:49:57;1.40;;;1.20;;
19179;SDS011;9722;48.754;8.868;2024-02-14T06:53:18;4.77;;;1.40;;
19179;SDS011;9722;48.754;8.868;2024-02-14T06:56:39;1.60;;;1.30;;
19179;SDS011;9722;48.754;8.868;2024-02-14T06:59:59;1.23;;;1.13;;
19179;SDS011;9722;48.754;8.868;2024-02-14T07:03:20;2.60;;;1.50;;
19179;SDS011;9722;48.754;8.868;2024-02-14T07:06:40;2.03;;;1.27;;
19179;SDS011;9722;48.754;8.868;2024-02-14T07:10:01;1.60;;;1.20;;
19179;SDS011;9722;48.754;8.868;2024-02-14T07:13:21;2.17;;;1.83;;
19179;SDS011;9722;48.754;8.868;2024-02-14T07:16:42;2.67;;;1.47;;
19179;SDS011;9722;48.754;8.868;2024-02-14T07:20:02;2.13;;;1.67;;
19179;SDS011;9722;48.754;8.868;2024-02-14T07:23:23;2.70;;;1.87;;
19179;SDS011;9722;48.754;8.868;2024-02-14T07:26:43;3.13;;;1.13;;
19179;SDS011;9722;48.754;8.868;2024-02-14T07:30:04;1.97;;;1.60;;
19179;SDS011;9722;48.754;8.868;2024-02-14T07:33:25;2.17;;;1.30;;
19179;SDS011;9722;48.754;8.868;2024-02-14T07:36:46;2.03;;;1.27;;
19179;SDS011;9722;48.754;8.868;2024-02-14T07:40:06;1.50;;;1.40;;
19179;SDS011;9722;48.754;8.868;2024-02-14T07:43:27;3.03;;;1.50;;
19179;SDS011;9722;48.754;8.868;2024-02-14T07:46:51;7.43;;;1.53;;
19179;SDS011;9722;48.754;8.868;2024-02-14T07:50:12;2.77;;;1.40;;
19179;SDS011;9722;48.754;8.868;2024-02-14T07:53:33;2.20;;;1.50;;
19179;SDS011;9722;48.754;8.868;2024-02-14T07:56:54;2.90;;;1.90;;
19179;SDS011;9722;48.754;8.868;2024-02-14T08:00:14;4.00;;;2.13;;
19179;SDS011;9722;48.754;8.868;2024-02-14T08:03:42;3.27;;;1.80;;
19179;SDS011;9722;48.754;8.868;2024-02-14T08:07:02;5.53;;;2.20;;
19179;SDS011;9722;48.754;8.868;2024-02-14T08:10:23;2.47;;;1.90;;
19179;SDS011;9722;48.754;8.868;2024-02-14T08:13:44;3.00;;;2.30;;
19179;SDS011;9722;48.754;8.868;2024-02-14T08:17:04;4.57;;;2.30;;
19179;SDS011;9722;48.754;8.868;2024-02-14T08:20:25;2.43;;;1.93;;
19179;SDS011;9722;48.754;8.868;2024-02-14T08:23:45;2.23;;;1.83;;
19179;SDS011;9722;48.754;8.868;2024-02-14T08:27:06;1.80;;;1.50;;
19179;SDS011;9722;48.754;8.868;2024-02-14T08:30:26;4.47;;;2.43;;
19179;SDS011;9722;48.754;8.868;2024-02-14T08:33:50;3.37;;;2.80;;
19179;SDS011;9722;48.754;8.868;2024-02-14T08:37:11;4.50;;;3.60;;
19179;SDS011;9722;48.754;8.868;2024-02-14T08:40:32;5.07;;;3.40;;
19179;SDS011;9722;48.754;8.868;2024-02-14T08:43:52;5.87;;;3.60;;
19179;SDS011;9722;48.754;8.868;2024-02-14T08:47:13;4.17;;;1.93;;
19179;SDS011;9722;48.754;8.868;2024-02-14T08:50:33;5.10;;;2.40;;
19179;SDS011;9722;48.754;8.868;2024-02-14T08:53:54;2.97;;;1.70;;
19179;SDS011;9722;48.754;8.868;2024-02-14T08:57:15;1.57;;;1.40;;
19179;SDS011;9722;48.754;8.868;2024-02-14T09:00:36;2.00;;;1.43;;
19179;SDS011;9722;48.754;8.868;2024-02-14T09:03:56;2.93;;;1.60;;
19179;SDS011;9722;48.754;8.868;2024-02-14T09:07:18;2.90;;;2.17;;
19179;SDS011;9722;48.754;8.868;2024-02-14T09:10:39;3.23;;;1.80;;
19179;SDS011;9722;48.754;8.868;2024-02-14T09:14:00;2.17;;;1.30;;
19179;SDS011;9722;48.754;8.868;2024-02-14T09:17:26;1.77;;;1.30;;
19179;SDS011;9722;48.754;8.868;2024-02-14T09:20:47;1.90;;;1.53;;
19179;SDS011;9722;48.754;8.868;2024-02-14T09:24:09;2.20;;;1.60;;
19179;SDS011;9722;48.754;8.868;2024-02-14T09:27:30;2.13;;;1.50;;
19179;SDS011;9722;48.754;8.868;2024-02-14T09:30:51;4.70;;;1.70;;
19179;SDS011;9722;48.754;8.868;2024-02-14T09:34:12;2.40;;;1.60;;
19179;SDS011;9722;48.754;8.868;2024-02-14T09:37:34;1.90;;;1.67;;
19179;SDS011;9722;48.754;8.868;2024-02-14T09:40:57;1.53;;;1.43;;
19179;SDS011;9722;48.754;8.868;2024-02-14T09:44:40;2.70;;;1.50;;
19179;SDS011;9722;48.754;8.868;2024-02-14T09:48:01;1.83;;;1.40;;
19179;SDS011;9722;48.754;8.868;2024-02-14T09:51:22;1.07;;;0.97;;
19179;SDS011;9722;48.754;8.868;2024-02-14T09:54:44;2.37;;;1.37;;
19179;SDS011;9722;48.754;8.868;2024-02-14T09:58:05;2.07;;;1.67;;
19179;SDS011;9722;48.754;8.868;2024-02-14T10:01:26;2.00;;;1.33;;
19179;SDS011;9722;48.754;8.868;2024-02-14T10:04:47;2.63;;;1.80;;
19179;SDS011;9722;48.754;8.868;2024-02-14T10:08:08;1.60;;;1.10;;
19179;SDS011;9722;48.754;8.868;2024-02-14T10:11:30;2.10;;;1.20;;
19179;SDS011;9722;48.754;8.868;2024-02-14T10:14:51;1.70;;;1.10;;
19179;SDS011;9722;48.754;8.868;2024-02-14T10:18:12;1.50;;;0.80;;
19179;SDS011;9722;48.754;8.868;2024-02-14T10:21:34;0.83;;;0.83;;
19179;SDS011;9722;48.754;8.868;2024-02-14T10:24:55;0.80;;;0.60;;
19179;SDS011;9722;48.754;8.868;2024-02-14T10:28:16;1.53;;;0.70;;
19179;SDS011;9722;48.754;8.868;2024-02-14T10:31:36;0.67;;;0.57;;
19179;SDS011;9722;48.754;8.868;2024-02-14T10:34:57;0.80;;;0.80;;
19179;SDS011;9722;48.754;8.868;2024-02-14T10:38:18;0.57;;;0.57;;
19179;SDS011;9722;48.754;8.868;2024-02-14T10:41:40;1.30;;;0.60;;
19179;SDS011;9722;48.754;8.868;2024-02-14T10:45:02;1.03;;;0.50;;
19179;SDS011;9722;48.754;8.868;2024-02-14T10:48:23;1.00;;;0.60;;
19179;SDS011;9722;48.754;8.868;2024-02-14T10:51:45;0.77;;;0.60;;
19179;SDS011;9722;48.754;8.868;2024-02-14T10:55:10;0.60;;;0.60;;
19179;SDS011;9722;48.754;8.868;2024-02-14T10:58:32;0.83;;;0.67;;
19179;SDS011;9722;48.754;8.868;2024-02-14T11:01:54;1.00;;;0.87;;
19179;SDS011;9722;48.754;8.868;2024-02-14T11:05:18;1.27;;;0.70;;
19179;SDS011;9722;48.754;8.868;2024-02-14T11:08:42;1.67;;;0.80;;
19179;SDS011;9722;48.754;8.868;2024-02-14T11:12:02;1.70;;;0.50;;
19179;SDS011;9722;48.754;8.868;2024-02-14T11:15:24;1.20;;;0.60;;
19179;SDS011;9722;48.754;8.868;2024-02-14T11:18:45;1.27;;;0.57;;
19179;SDS011;9722;48.754;8.868;2024-02-14T11:22:18;1.67;;;0.90;;
19179;SDS011;9722;48.754;8.868;2024-02-14T11:25:39;0.97;;;0.63;;
19179;SDS011;9722;48.754;8.868;2024-02-14T11:29:00;0.97;;;0.70;;
19179;SDS011;9722;48.754;8.868;2024-02-14T11:32:21;0.87;;;0.73;;
19179;SDS011;9722;48.754;8.868;2024-02-14T11:35:42;0.70;;;0.70;;
19179;SDS011;9722;48.754;8.868;2024-02-14T11:39:04;1.70;;;0.80;;
19179;SDS011;9722;48.754;8.868;2024-02-14T11:42:27;0.60;;;0.60;;
19179;SDS011;9722;48.754;8.868;2024-02-14T11:45:48;1.33;;;0.70;;
19179;SDS011;9722;48.754;8.868;2024-02-14T11:49:12;1.47;;;0.60;;
19179;SDS011;9722;48.754;8.868;2024-02-14T11:52:33;0.60;;;0.60;;
19179;SDS011;9722;48.754;8.868;2024-02-14T11:55:55;1.13;;;0.50;;
19179;SDS011;9722;48.754;8.868;2024-02-14T11:59:16;0.50;;;0.40;;
19179;SDS011;9722;48.754;8.868;2024-02-14T12:02:39;0.40;;;0.40;;
19179;SDS011;9722;48.754;8.868;2024-02-14T12:06:00;0.40;;;0.40;;
19179;SDS011;9722;48.754;8.868;2024-02-14T12:09:23;0.90;;;0.80;;
19179;SDS011;9722;48.754;8.868;2024-02-14T12:12:46;0.40;;;0.40;;
19179;SDS011;9722;48.754;8.868;2024-02-14T12:16:07;0.80;;;0.80;;
19179;SDS011;9722;48.754;8.868;2024-02-14T12:19:28;0.60;;;0.60;;
19179;SDS011;9722;48.754;8.868;2024-02-14T12:22:49;0.60;;;0.40;;
19179;SDS011;9722;48.754;8.868;2024-02-14T12:26:10;0.67;;;0.50;;
19179;SDS011;9722;48.754;8.868;2024-02-14T12:29:37;0.90;;;0.60;;
19179;SDS011;9722;48.754;8.868;2024-02-14T12:32:58;1.87;;;0.40;;
19179;SDS011;9722;48.754;8.868;2024-02-14T12:36:33;0.50;;;0.50;;
19179;SDS011;9722;48.754;8.868;2024-02-14T12:39:54;0.40;;;0.40;;
19179;SDS011;9722;48.754;8.868;2024-02-14T12:43:16;0.67;;;0.60;;
19179;SDS011;9722;48.754;8.868;2024-02-14T12:46:37;0.40;;;0.40;;
19179;SDS011;9722;48.754;8.868;2024-02-14T12:50:00;0.23;;;0.23;;
19179;SDS011;9722;48.754;8.868;2024-02-14T12:53:21;0.80;;;0.30;;
19179;SDS011;9722;48.754;8.868;2024-02-14T12:56:41;0.40;;;0.40;;
19179;SDS011;9722;48.754;8.868;2024-02-14T13:00:02;0.40;;;0.33;;
19179;SDS011;9722;48.754;8.868;2024-02-14T13:03:28;0.40;;;0.30;;
19179;SDS011;9722;48.754;8.868;2024-02-14T13:06:49;1.43;;;0.80;;
19179;SDS011;9722;48.754;8.868;2024-02-14T13:10:09;1.20;;;0.67;;
19179;SDS011;9722;48.754;8.868;2024-02-14T13:13:30;1.13;;;0.30;;
19179;SDS011;9722;48.754;8.868;2024-02-14T13:16:50;0.30;;;0.30;;
19179;SDS011;9722;48.754;8.868;2024-02-14T13:20:11;0.33;;;0.33;;
19179;SDS011;9722;48.754;8.868;2024-02-14T13:23:32;0.23;;;0.23;;
19179;SDS011;9722;48.754;8.868;2024-02-14T13:26:52;0.17;;;0.17;;
19179;SDS011;9722;48.754;8.868;2024-02-14T13:30:13;0.43;;;0.30;;
19179;SDS011;9722;48.754;8.868;2024-02-14T13:33:34;0.20;;;0.20;;
19179;SDS011;9722;48.754;8.868;2024-02-14T13:36:54;0.20;;;0.20;;
19179;SDS011;9722;48.754;8.868;2024-02-14T13:40:16;0.20;;;0.20;;
19179;SDS011;9722;48.754;8.868;2024-02-14T13:43:37;0.20;;;0.20;;
19179;SDS011;9722;48.754;8.868;2024-02-14T13:46:58;0.40;;;0.30;;
19179;SDS011;9722;48.754;8.868;2024-02-14T13:50:19;0.30;;;0.30;;
19179;SDS011;9722;48.754;8.868;2024-02-14T13:53:40;0.30;;;0.30;;
19179;SDS011;9722;48.754;8.868;2024-02-14T13:57:01;0.30;;;0.20;;
19179;SDS011;9722;48.754;8.868;2024-02-14T14:00:22;0.30;;;0.30;;
19179;SDS011;9722;48.754;8.868;2024-02-14T14:03:43;0.30;;;0.20;;
19179;SDS011;9722;48.754;8.868;2024-02-14T14:07:04;0.30;;;0.30;;
19179;SDS011;9722;48.754;8.868;2024-02-14T14:10:24;0.47;;;0.30;;
19179;SDS011;9722;48.754;8.868;2024-02-14T14:13:46;0.30;;;0.30;;
19179;SDS011;9722;48.754;8.868;2024-02-14T14:17:07;0.30;;;0.30;;
19179;SDS011;9722;48.754;8.868;2024-02-14T14:20:27;0.67;;;0.40;;
19179;SDS011;9722;48.754;8.868;2024-02-14T14:23:48;0.30;;;0.30;;
19179;SDS011;9722;48.754;8.868;2024-02-14T14:27:08;0.30;;;0.30;;
19179;SDS011;9722;48.754;8.868;2024-02-14T14:30:33;0.50;;;0.40;;
19179;SDS011;9722;48.754;8.868;2024-02-14T14:33:53;0.47;;;0.40;;
19179;SDS011;9722;48.754;8.868;2024-02-14T14:37:14;6.13;;;1.13;;
19179;SDS011;9722;48.754;8.868;2024-02-14T14:40:34;0.70;;;0.50;;
19179;SDS011;9722;48.754;8.868;2024-02-14T14:43:57;0.40;;;0.40;;
19179;SDS011;9722;48.754;8.868;2024-02-14T14:47:19;0.50;;;0.50;;
19179;SDS011;9722;48.754;8.868;2024-02-14T14:50:39;1.07;;;0.70;;
19179;SDS011;9722;48.754;8.868;2024-02-14T14:54:00;0.97;;;0.60;;
19179;SDS011;9722;48.754;8.868;2024-02-14T14:57:21;0.50;;;0.50;;
19179;SDS011;9722;48.754;8.868;2024-02-14T15:00:43;0.50;;;0.50;;
19179;SDS011;9722;48.754;8.868;2024-02-14T15:04:04;1.37;;;0.80;;
19179;SDS011;9722;48.754;8.868;2024-02-14T15:07:26;0.83;;;0.70;;
19179;SDS011;9722;48.754;8.868;2024-02-14T15:10:47;1.57;;;1.30;;
19179;SDS011;9722;48.754;8.868;2024-02-14T15:14:07;0.93;;;0.80;;
19179;SDS011;9722;48.754;8.868;2024-02-14T15:17:28;0.57;;;0.57;;
19179;SDS011;9722;48.754;8.868;2024-02-14T15:20:49;1.87;;;0.80;;
19179;SDS011;9722;48.754;8.868;2024-02-14T15:24:10;0.50;;;0.50;;
19179;SDS011;9722;48.754;8.868;2024-02-14T15:27:31;0.40;;;0.40;;
19179;SDS011;9722;48.754;8.868;2024-02-14T15:30:52;0.87;;;0.87;;
19179;SDS011;9722;48.754;8.868;2024-02-14T15:34:31;1.10;;;1.00;;
19179;SDS011;9722;48.754;8.868;2024-02-14T15:37:52;0.50;;;0.50;;
19179;SDS011;9722;48.754;8.868;2024-02-14T15:41:13;1.33;;;0.90;;
19179;SDS011;9722;48.754;8.868;2024-02-14T15:44:34;1.20;;;1.20;;
19179;SDS011;9722;48.754;8.868;2024-02-14T15:47:55;1.93;;;1.20;;
19179;SDS011;9722;48.754;8.868;2024-02-14T15:51:17;2.30;;;1.60;;
19179;SDS011;9722;48.754;8.868;2024-02-14T15:54:38;1.30;;;1.30;;
19179;SDS011;9722;48.754;8.868;2024-02-14T15:58:04;1.00;;;0.90;;
19179;SDS011;9722;48.754;8.868;2024-02-14T16:01:25;3.90;;;1.00;;
19179;SDS011;9722;48.754;8.868;2024-02-14T16:04:45;1.07;;;0.97;;
19179;SDS011;9722;48.754;8.868;2024-02-14T16:08:06;1.27;;;0.60;;
19179;SDS011;9722;48.754;8.868;2024-02-14T16:11:30;0.53;;;0.53;;
19179;SDS011;9722;48.754;8.868;2024-02-14T16:14:51;0.70;;;0.70;;
19179;SDS011;9722;48.754;8.868;2024-02-14T16:18:11;1.63;;;0.70;;
19179;SDS011;9722;48.754;8.868;2024-02-14T16:21:32;0.97;;;0.93;;
19179;SDS011;9722;48.754;8.868;2024-02-14T16:24:52;1.00;;;1.00;;
19179;SDS011;9722;48.754;8.868;2024-02-14T16:28:13;1.00;;;0.90;;
19179;SDS011;9722;48.754;8.868;2024-02-14T16:31:34;0.80;;;0.80;;
19179;SDS011;9722;48.754;8.868;2024-02-14T16:34:54;1.00;;;0.77;;
19179;SDS011;9722;48.754;8.868;2024-02-14T16:38:15;0.90;;;0.90;;
19179;SDS011;9722;48.754;8.868;2024-02-14T16:41:36;1.40;;;1.30;;
19179;SDS011;9722;48.754;8.868;2024-02-14T16:44:59;5.13;;;1.47;;
19179;SDS011;9722;48.754;8.868;2024-02-14T16:48:20;1.97;;;1.10;;
19179;SDS011;9722;48.754;8.868;2024-02-14T16:51:40;1.20;;;1.10;;
19179;SDS011;9722;48.754;8.868;2024-02-14T16:55:01;1.07;;;0.90;;
19179;SDS011;9722;48.754;8.868;2024-02-14T16:58:22;2.13;;;1.93;;
19179;SDS011;9722;48.754;8.868;2024-02-14T17:01:42;1.40;;;1.10;;
19179;SDS011;9722;48.754;8.868;2024-02-14T17:05:03;1.33;;;1.00;;
19179;SDS011;9722;48.754;8.868;2024-02-14T17:08:23;0.87;;;0.80;;
19179;SDS011;9722;48.754;8.868;2024-02-14T17:11:44;1.40;;;1.30;;
19179;SDS011;9722;48.754;8.868;2024-02-14T17:15:05;2.23;;;1.73;;
19179;SDS011;9722;48.754;8.868;2024-02-14T17:18:26;2.13;;;1.93;;
19179;SDS011;9722;48.754;8.868;2024-02-14T17:21:48;2.93;;;2.40;;
19179;SDS011;9722;48.754;8.868;2024-02-14T17:25:09;2.83;;;2.50;;
19179;SDS011;9722;48.754;8.868;2024-02-14T17:28:30;4.33;;;3.90;;
19179;SDS011;9722;48.754;8.868;2024-02-14T17:31:51;4.10;;;3.70;;
19179;SDS011;9722;48.754;8.868;2024-02-14T17:35:11;4.60;;;3.37;;
19179;SDS011;9722;48.754;8.868;2024-02-14T17:38:32;2.30;;;2.10;;
19179;SDS011;9722;48.754;8.868;2024-02-14T17:41:52;2.67;;;2.00;;
19179;SDS011;9722;48.754;8.868;2024-02-14T17:45:13;2.53;;;2.00;;
19179;SDS011;9722;48.754;8.868;2024-02-14T17:48:33;2.57;;;2.00;;
19179;SDS011;9722;48.754;8.868;2024-02-14T17:51:55;3.13;;;2.07;;
19179;SDS011;9722;48.754;8.868;2024-02-14T17:55:15;1.40;;;1.30;;
19179;SDS011;9722;48.754;8.868;2024-02-14T17:58:38;2.17;;;1.60;;
19179;SDS011;9722;48.754;8.868;2024-02-14T18:01:59;1.50;;;1.40;;
19179;SDS011;9722;48.754;8.868;2024-02-14T18:05:20;1.97;;;1.40;;
19179;SDS011;9722;48.754;8.868;2024-02-14T18:08:40;3.23;;;1.47;;
19179;SDS011;9722;48.754;8.868;2024-02-14T18:12:01;1.30;;;1.20;;
19179;SDS011;9722;48.754;8.868;2024-02-14T18:15:24;1.93;;;1.73;;
19179;SDS011;9722;48.754;8.868;2024-02-14T18:18:45;1.40;;;1.30;;
19179;SDS011;9722;48.754;8.868;2024-02-14T18:22:05;2.80;;;1.23;;
19179;SDS011;9722;48.754;8.868;2024-02-14T18:25:26;1.80;;;1.13;;
19179;SDS011;9722;48.754;8.868;2024-02-14T18:28:46;1.73;;;1.37;;
19179;SDS011;9722;48.754;8.868;2024-02-14T18:32:07;1.63;;;1.53;;
19179;SDS011;9722;48.754;8.868;2024-02-14T18:35:28;1.20;;;1.10;;
19179;SDS011;9722;48.754;8.868;2024-02-14T18:38:50;1.20;;;1.10;;
19179;SDS011;9722;48.754;8.868;2024-02-14T18:42:12;1.20;;;1.10;;
19179;SDS011;9722;48.754;8.868;2024-02-14T18:45:33;1.70;;;1.60;;
19179;SDS011;9722;48.754;8.868;2024-02-14T18:48:53;1.60;;;1.50;;
19179;SDS011;9722;48.754;8.868;2024-02-14T18:52:14;1.40;;;1.30;;
19179;SDS011;9722;48.754;8.868;2024-02-14T18:55:34;1.23;;;1.13;;
19179;SDS011;9722;48.754;8.868;2024-02-14T18:58:55;2.27;;;1.13;;
19179;SDS011;9722;48.754;8.868;2024-02-14T19:02:15;2.63;;;1.60;;
19179;SDS011;9722;48.754;8.868;2024-02-14T19:05:36;2.50;;;1.53;;
19179;SDS011;9722;48.754;8.868;2024-02-14T19:08:56;1.60;;;1.33;;
19179;SDS011;9722;48.754;8.868;2024-02-14T19:12:17;1.40;;;1.30;;
19179;SDS011;9722;48.754;8.868;2024-02-14T19:15:37;3.77;;;1.70;;
19179;SDS011;9722;48.754;8.868;2024-02-14T19:18:58;1.50;;;1.20;;
19179;SDS011;9722;48.754;8.868;2024-02-14T19:22:19;1.60;;;1.50;;
19179;SDS011;9722;48.754;8.868;2024-02-14T19:25:39;1.57;;;1.30;;
19179;SDS011;9722;48.754;8.868;2024-02-14T19:29:00;1.77;;;1.60;;
19179;SDS011;9722;48.754;8.868;2024-02-14T19:32:20;1.80;;;1.70;;
19179;SDS011;9722;48.754;8.868;2024-02-14T19:35:41;2.20;;;1.30;;
19179;SDS011;9722;48.754;8.868;2024-02-14T19:39:01;1.40;;;1.30;;
19179;SDS011;9722;48.754;8.868;2024-02-14T19:42:23;1.27;;;1.17;;
19179;SDS011;9722;48.754;8.868;2024-02-14T19:45:44;1.60;;;1.50;;
19179;SDS011;9722;48.754;8.868;2024-02-14T19:49:05;2.33;;;2.03;;
19179;SDS011;9722;48.754;8.868;2024-02-14T19:52:27;2.37;;;2.17;;
19179;SDS011;9722;48.754;8.868;2024-02-14T19:55:50;3.23;;;2.40;;
19179;SDS011;9722;48.754;8.868;2024-02-14T19:59:10;3.00;;;2.73;;
19179;SDS011;9722;48.754;8.868;2024-02-14T20:02:31;3.33;;;2.40;;
19179;SDS011;9722;48.754;8.868;2024-02-14T20:05:53;4.60;;;2.80;;
19179;SDS011;9722;48.754;8.868;2024-02-14T20:09:13;2.40;;;1.77;;
19179;SDS011;9722;48.754;8.868;2024-02-14T20:12:34;4.60;;;2.70;;
19179;SDS011;9722;48.754;8.868;2024-02-14T20:15:56;3.17;;;2.73;;
19179;SDS011;9722;48.754;8.868;2024-02-14T20:19:16;2.70;;;2.20;;
19179;SDS011;9722;48.754;8.868;2024-02-14T20:22:37;3.80;;;3.27;;
19179;SDS011;9722;48.754;8.868;2024-02-14T20:25:57;4.60;;;3.00;;
19179;SDS011;9722;48.754;8.868;2024-02-14T20:29:18;3.60;;;3.30;;